sensor_id;sensor_type;location;lat;lon;timestamp;P1;durP1;ratioP1;P2;durP2;ratioP2
18997;SDS011;9632;51.018;4.284;2023-09-19T00:00:37;12.02;;;1.80;;
18997;SDS011;9632;51.018;4.284;2023-09-19T00:03:05;11.73;;;1.70;;
18997;SDS011;9632;51.018;4.284;2023-09-19T00:05:33;12.77;;;1.67;;
18997;SDS011;9632;51.018;4.284;2023-09-19T00:08:00;12.85;;;2.15;;
18997;SDS011;9632;51.018;4.284;2023-09-19T00:10:29;11.48;;;1.85;;
18997;SDS011;9632;51.018;4.284;2023-09-19T00:12:56;12.32;;;2.10;;
18997;SDS011;9632;51.018;4.284;2023-09-19T00:15:24;12.93;;;1.85;;
18997;SDS011;9632;51.018;4.284;2023-09-19T00:17:54;13.43;;;2.20;;
18997;SDS011;9632;51.018;4.284;2023-09-19T00:20:20;8.98;;;1.73;;
18997;SDS011;9632;51.018;4.284;2023-09-19T00:22:48;10.15;;;2.05;;
18997;SDS011;9632;51.018;4.284;2023-09-19T00:25:18;11.30;;;1.65;;
18997;SDS011;9632;51.018;4.284;2023-09-19T00:27:45;14.65;;;2.20;;
18997;SDS011;9632;51.018;4.284;2023-09-19T00:30:13;8.95;;;1.80;;
18997;SDS011;9632;51.018;4.284;2023-09-19T00:32:44;10.90;;;1.92;;
18997;SDS011;9632;51.018;4.284;2023-09-19T00:35:12;12.80;;;1.90;;
18997;SDS011;9632;51.018;4.284;2023-09-19T00:37:40;8.60;;;1.60;;
18997;SDS011;9632;51.018;4.284;2023-09-19T00:40:06;7.28;;;1.50;;
18997;SDS011;9632;51.018;4.284;2023-09-19T00:42:37;11.15;;;2.08;;
18997;SDS011;9632;51.018;4.284;2023-09-19T00:45:06;7.15;;;1.55;;
18997;SDS011;9632;51.018;4.284;2023-09-19T00:47:35;7.53;;;1.50;;
18997;SDS011;9632;51.018;4.284;2023-09-19T00:50:02;10.75;;;1.77;;
18997;SDS011;9632;51.018;4.284;2023-09-19T00:52:32;11.18;;;1.73;;
18997;SDS011;9632;51.018;4.284;2023-09-19T00:55:01;11.85;;;1.95;;
18997;SDS011;9632;51.018;4.284;2023-09-19T00:57:27;9.88;;;1.90;;
18997;SDS011;9632;51.018;4.284;2023-09-19T00:59:54;12.07;;;1.75;;
18997;SDS011;9632;51.018;4.284;2023-09-19T01:02:21;11.60;;;1.63;;
18997;SDS011;9632;51.018;4.284;2023-09-19T01:04:47;6.18;;;1.60;;
18997;SDS011;9632;51.018;4.284;2023-09-19T01:07:12;10.75;;;2.05;;
18997;SDS011;9632;51.018;4.284;2023-09-19T01:09:40;7.80;;;1.75;;
18997;SDS011;9632;51.018;4.284;2023-09-19T01:12:07;10.52;;;1.85;;
18997;SDS011;9632;51.018;4.284;2023-09-19T01:14:42;7.63;;;1.60;;
18997;SDS011;9632;51.018;4.284;2023-09-19T01:17:23;12.75;;;2.13;;
18997;SDS011;9632;51.018;4.284;2023-09-19T01:28:20;8.80;;;1.80;;
18997;SDS011;9632;51.018;4.284;2023-09-19T01:30:58;11.32;;;1.50;;
18997;SDS011;9632;51.018;4.284;2023-09-19T01:33:28;12.50;;;1.80;;
18997;SDS011;9632;51.018;4.284;2023-09-19T01:36:16;7.50;;;1.50;;
18997;SDS011;9632;51.018;4.284;2023-09-19T01:38:41;8.82;;;1.73;;
18997;SDS011;9632;51.018;4.284;2023-09-19T01:41:10;10.07;;;1.60;;
18997;SDS011;9632;51.018;4.284;2023-09-19T01:43:42;12.95;;;2.20;;
18997;SDS011;9632;51.018;4.284;2023-09-19T01:46:12;11.80;;;1.95;;
18997;SDS011;9632;51.018;4.284;2023-09-19T01:49:04;11.70;;;2.03;;
18997;SDS011;9632;51.018;4.284;2023-09-19T01:54:32;10.13;;;2.05;;
18997;SDS011;9632;51.018;4.284;2023-09-19T01:57:05;12.93;;;2.00;;
18997;SDS011;9632;51.018;4.284;2023-09-19T01:59:43;6.97;;;1.42;;
18997;SDS011;9632;51.018;4.284;2023-09-19T02:02:15;12.55;;;1.83;;
18997;SDS011;9632;51.018;4.284;2023-09-19T02:04:42;15.32;;;2.10;;
18997;SDS011;9632;51.018;4.284;2023-09-19T02:07:08;14.80;;;2.40;;
18997;SDS011;9632;51.018;4.284;2023-09-19T02:09:34;11.43;;;1.83;;
18997;SDS011;9632;51.018;4.284;2023-09-19T02:12:00;14.38;;;2.10;;
18997;SDS011;9632;51.018;4.284;2023-09-19T02:14:28;16.15;;;2.10;;
18997;SDS011;9632;51.018;4.284;2023-09-19T02:16:54;16.67;;;1.90;;
18997;SDS011;9632;51.018;4.284;2023-09-19T02:19:21;12.95;;;2.15;;
18997;SDS011;9632;51.018;4.284;2023-09-19T02:21:47;13.88;;;2.00;;
18997;SDS011;9632;51.018;4.284;2023-09-19T02:24:14;12.68;;;2.05;;
18997;SDS011;9632;51.018;4.284;2023-09-19T02:26:40;16.63;;;2.10;;
18997;SDS011;9632;51.018;4.284;2023-09-19T02:29:06;17.67;;;2.20;;
18997;SDS011;9632;51.018;4.284;2023-09-19T02:31:31;12.10;;;2.30;;
18997;SDS011;9632;51.018;4.284;2023-09-19T02:33:57;17.75;;;2.70;;
18997;SDS011;9632;51.018;4.284;2023-09-19T02:36:25;9.23;;;2.17;;
18997;SDS011;9632;51.018;4.284;2023-09-19T02:38:51;13.30;;;2.40;;
18997;SDS011;9632;51.018;4.284;2023-09-19T02:41:16;24.70;;;2.90;;
18997;SDS011;9632;51.018;4.284;2023-09-19T02:43:42;17.42;;;2.45;;
18997;SDS011;9632;51.018;4.284;2023-09-19T02:46:08;16.42;;;2.55;;
18997;SDS011;9632;51.018;4.284;2023-09-19T02:48:34;16.17;;;2.40;;
18997;SDS011;9632;51.018;4.284;2023-09-19T02:51:00;16.42;;;2.30;;
18997;SDS011;9632;51.018;4.284;2023-09-19T02:53:26;13.32;;;2.10;;
18997;SDS011;9632;51.018;4.284;2023-09-19T02:55:52;11.90;;;2.05;;
18997;SDS011;9632;51.018;4.284;2023-09-19T02:58:18;15.77;;;2.10;;
18997;SDS011;9632;51.018;4.284;2023-09-19T03:00:44;13.40;;;2.47;;
18997;SDS011;9632;51.018;4.284;2023-09-19T03:03:14;13.40;;;1.92;;
18997;SDS011;9632;51.018;4.284;2023-09-19T03:05:43;12.70;;;1.92;;
18997;SDS011;9632;51.018;4.284;2023-09-19T03:08:15;12.60;;;2.42;;
18997;SDS011;9632;51.018;4.284;2023-09-19T03:10:41;20.92;;;2.58;;
18997;SDS011;9632;51.018;4.284;2023-09-19T03:13:07;13.27;;;2.53;;
18997;SDS011;9632;51.018;4.284;2023-09-19T03:15:35;19.63;;;2.65;;
18997;SDS011;9632;51.018;4.284;2023-09-19T03:18:04;13.57;;;2.22;;
18997;SDS011;9632;51.018;4.284;2023-09-19T03:20:30;18.52;;;2.47;;
18997;SDS011;9632;51.018;4.284;2023-09-19T03:22:55;11.80;;;1.80;;
18997;SDS011;9632;51.018;4.284;2023-09-19T03:25:22;10.57;;;1.83;;
18997;SDS011;9632;51.018;4.284;2023-09-19T03:27:49;13.32;;;2.08;;
18997;SDS011;9632;51.018;4.284;2023-09-19T03:30:15;13.27;;;2.05;;
18997;SDS011;9632;51.018;4.284;2023-09-19T03:32:48;14.20;;;2.08;;
18997;SDS011;9632;51.018;4.284;2023-09-19T03:35:15;11.45;;;1.98;;
18997;SDS011;9632;51.018;4.284;2023-09-19T03:37:41;13.05;;;1.90;;
18997;SDS011;9632;51.018;4.284;2023-09-19T03:40:08;12.48;;;2.00;;
18997;SDS011;9632;51.018;4.284;2023-09-19T03:42:37;15.80;;;2.10;;
18997;SDS011;9632;51.018;4.284;2023-09-19T03:45:07;9.75;;;1.70;;
18997;SDS011;9632;51.018;4.284;2023-09-19T03:47:37;11.15;;;2.33;;
18997;SDS011;9632;51.018;4.284;2023-09-19T03:50:03;12.65;;;2.15;;
18997;SDS011;9632;51.018;4.284;2023-09-19T03:52:30;10.77;;;2.10;;
18997;SDS011;9632;51.018;4.284;2023-09-19T03:54:55;13.70;;;1.98;;
18997;SDS011;9632;51.018;4.284;2023-09-19T03:57:21;13.48;;;1.90;;
18997;SDS011;9632;51.018;4.284;2023-09-19T03:59:47;12.40;;;2.03;;
18997;SDS011;9632;51.018;4.284;2023-09-19T04:02:13;12.73;;;1.92;;
18997;SDS011;9632;51.018;4.284;2023-09-19T04:04:47;14.50;;;2.28;;
18997;SDS011;9632;51.018;4.284;2023-09-19T04:07:13;10.48;;;1.77;;
18997;SDS011;9632;51.018;4.284;2023-09-19T04:09:39;17.80;;;2.00;;
18997;SDS011;9632;51.018;4.284;2023-09-19T04:12:04;14.45;;;2.20;;
18997;SDS011;9632;51.018;4.284;2023-09-19T04:14:30;11.60;;;1.98;;
18997;SDS011;9632;51.018;4.284;2023-09-19T04:16:56;15.32;;;2.50;;
18997;SDS011;9632;51.018;4.284;2023-09-19T04:19:21;14.32;;;2.45;;
18997;SDS011;9632;51.018;4.284;2023-09-19T04:21:47;14.85;;;2.78;;
18997;SDS011;9632;51.018;4.284;2023-09-19T04:24:12;8.57;;;1.77;;
18997;SDS011;9632;51.018;4.284;2023-09-19T04:26:39;16.45;;;2.40;;
18997;SDS011;9632;51.018;4.284;2023-09-19T04:29:04;12.07;;;2.35;;
18997;SDS011;9632;51.018;4.284;2023-09-19T04:31:31;17.05;;;2.88;;
18997;SDS011;9632;51.018;4.284;2023-09-19T04:33:56;16.33;;;2.33;;
18997;SDS011;9632;51.018;4.284;2023-09-19T04:36:24;19.08;;;2.15;;
18997;SDS011;9632;51.018;4.284;2023-09-19T04:38:49;9.35;;;1.85;;
18997;SDS011;9632;51.018;4.284;2023-09-19T04:41:15;15.60;;;2.53;;
18997;SDS011;9632;51.018;4.284;2023-09-19T04:43:41;24.73;;;2.67;;
18997;SDS011;9632;51.018;4.284;2023-09-19T04:46:06;16.85;;;2.50;;
18997;SDS011;9632;51.018;4.284;2023-09-19T04:48:32;11.95;;;2.22;;
18997;SDS011;9632;51.018;4.284;2023-09-19T04:50:59;15.10;;;2.00;;
18997;SDS011;9632;51.018;4.284;2023-09-19T04:53:25;17.52;;;2.53;;
18997;SDS011;9632;51.018;4.284;2023-09-19T04:55:52;18.00;;;2.33;;
18997;SDS011;9632;51.018;4.284;2023-09-19T04:58:20;21.50;;;3.15;;
18997;SDS011;9632;51.018;4.284;2023-09-19T05:00:46;15.13;;;2.33;;
18997;SDS011;9632;51.018;4.284;2023-09-19T05:03:12;18.17;;;2.92;;
18997;SDS011;9632;51.018;4.284;2023-09-19T05:05:37;14.85;;;2.10;;
18997;SDS011;9632;51.018;4.284;2023-09-19T05:08:04;14.10;;;2.25;;
18997;SDS011;9632;51.018;4.284;2023-09-19T05:10:30;11.05;;;2.15;;
18997;SDS011;9632;51.018;4.284;2023-09-19T05:12:57;12.93;;;2.10;;
18997;SDS011;9632;51.018;4.284;2023-09-19T05:15:22;17.63;;;2.03;;
18997;SDS011;9632;51.018;4.284;2023-09-19T05:17:48;16.48;;;2.28;;
18997;SDS011;9632;51.018;4.284;2023-09-19T05:20:16;17.30;;;2.08;;
18997;SDS011;9632;51.018;4.284;2023-09-19T05:22:43;14.23;;;1.83;;
18997;SDS011;9632;51.018;4.284;2023-09-19T05:25:11;18.90;;;2.13;;
18997;SDS011;9632;51.018;4.284;2023-09-19T05:27:41;9.90;;;1.90;;
18997;SDS011;9632;51.018;4.284;2023-09-19T05:30:07;13.80;;;2.13;;
18997;SDS011;9632;51.018;4.284;2023-09-19T05:32:33;19.98;;;2.13;;
18997;SDS011;9632;51.018;4.284;2023-09-19T05:34:59;17.30;;;2.80;;
18997;SDS011;9632;51.018;4.284;2023-09-19T05:37:25;13.98;;;2.08;;
18997;SDS011;9632;51.018;4.284;2023-09-19T05:39:51;11.05;;;1.83;;
18997;SDS011;9632;51.018;4.284;2023-09-19T05:42:18;14.38;;;2.15;;
18997;SDS011;9632;51.018;4.284;2023-09-19T05:44:44;20.48;;;2.72;;
18997;SDS011;9632;51.018;4.284;2023-09-19T05:47:10;11.50;;;2.10;;
18997;SDS011;9632;51.018;4.284;2023-09-19T05:49:35;15.57;;;2.40;;
18997;SDS011;9632;51.018;4.284;2023-09-19T05:52:07;20.33;;;2.60;;
18997;SDS011;9632;51.018;4.284;2023-09-19T05:54:33;12.20;;;1.83;;
18997;SDS011;9632;51.018;4.284;2023-09-19T05:57:02;14.52;;;1.83;;
18997;SDS011;9632;51.018;4.284;2023-09-19T05:59:28;19.90;;;2.38;;
18997;SDS011;9632;51.018;4.284;2023-09-19T06:01:54;16.17;;;2.13;;
18997;SDS011;9632;51.018;4.284;2023-09-19T06:04:20;15.07;;;1.85;;
18997;SDS011;9632;51.018;4.284;2023-09-19T06:06:46;16.17;;;2.65;;
18997;SDS011;9632;51.018;4.284;2023-09-19T06:09:14;17.45;;;2.17;;
18997;SDS011;9632;51.018;4.284;2023-09-19T06:11:41;19.17;;;2.78;;
18997;SDS011;9632;51.018;4.284;2023-09-19T06:14:07;14.35;;;2.10;;
18997;SDS011;9632;51.018;4.284;2023-09-19T06:16:32;15.80;;;2.22;;
18997;SDS011;9632;51.018;4.284;2023-09-19T06:18:58;20.65;;;3.30;;
18997;SDS011;9632;51.018;4.284;2023-09-19T06:21:25;16.80;;;2.17;;
18997;SDS011;9632;51.018;4.284;2023-09-19T06:23:52;11.90;;;2.00;;
18997;SDS011;9632;51.018;4.284;2023-09-19T06:26:18;17.00;;;2.10;;
18997;SDS011;9632;51.018;4.284;2023-09-19T06:28:43;20.33;;;2.45;;
18997;SDS011;9632;51.018;4.284;2023-09-19T06:31:09;17.70;;;2.33;;
18997;SDS011;9632;51.018;4.284;2023-09-19T06:33:35;15.82;;;2.17;;
18997;SDS011;9632;51.018;4.284;2023-09-19T06:36:04;18.02;;;2.47;;
18997;SDS011;9632;51.018;4.284;2023-09-19T06:38:30;15.70;;;2.15;;
18997;SDS011;9632;51.018;4.284;2023-09-19T06:40:58;15.55;;;2.25;;
18997;SDS011;9632;51.018;4.284;2023-09-19T06:43:23;17.85;;;2.20;;
18997;SDS011;9632;51.018;4.284;2023-09-19T06:45:49;13.88;;;2.33;;
18997;SDS011;9632;51.018;4.284;2023-09-19T06:48:16;14.57;;;1.95;;
18997;SDS011;9632;51.018;4.284;2023-09-19T06:50:43;13.85;;;2.20;;
18997;SDS011;9632;51.018;4.284;2023-09-19T06:53:09;12.60;;;1.88;;
18997;SDS011;9632;51.018;4.284;2023-09-19T06:55:35;13.07;;;2.03;;
18997;SDS011;9632;51.018;4.284;2023-09-19T06:58:01;13.85;;;2.45;;
18997;SDS011;9632;51.018;4.284;2023-09-19T07:00:27;14.43;;;2.28;;
18997;SDS011;9632;51.018;4.284;2023-09-19T07:02:57;15.90;;;2.05;;
18997;SDS011;9632;51.018;4.284;2023-09-19T07:05:29;15.45;;;2.00;;
18997;SDS011;9632;51.018;4.284;2023-09-19T07:07:56;11.20;;;1.67;;
18997;SDS011;9632;51.018;4.284;2023-09-19T07:10:26;17.85;;;1.90;;
18997;SDS011;9632;51.018;4.284;2023-09-19T07:12:59;12.85;;;2.33;;
18997;SDS011;9632;51.018;4.284;2023-09-19T07:15:26;16.13;;;2.08;;
18997;SDS011;9632;51.018;4.284;2023-09-19T07:17:53;11.88;;;1.90;;
18997;SDS011;9632;51.018;4.284;2023-09-19T07:20:19;17.50;;;2.30;;
18997;SDS011;9632;51.018;4.284;2023-09-19T07:22:45;17.67;;;2.15;;
18997;SDS011;9632;51.018;4.284;2023-09-19T07:25:13;19.13;;;2.60;;
18997;SDS011;9632;51.018;4.284;2023-09-19T07:27:40;15.90;;;2.25;;
18997;SDS011;9632;51.018;4.284;2023-09-19T07:30:06;16.80;;;2.25;;
18997;SDS011;9632;51.018;4.284;2023-09-19T07:32:33;15.60;;;2.30;;
18997;SDS011;9632;51.018;4.284;2023-09-19T07:35:01;17.00;;;1.75;;
18997;SDS011;9632;51.018;4.284;2023-09-19T07:37:28;14.82;;;2.10;;
18997;SDS011;9632;51.018;4.284;2023-09-19T07:39:56;15.75;;;2.40;;
18997;SDS011;9632;51.018;4.284;2023-09-19T07:42:21;14.73;;;2.00;;
18997;SDS011;9632;51.018;4.284;2023-09-19T07:44:47;12.63;;;1.83;;
18997;SDS011;9632;51.018;4.284;2023-09-19T07:47:15;15.25;;;1.95;;
18997;SDS011;9632;51.018;4.284;2023-09-19T07:49:41;15.43;;;2.13;;
18997;SDS011;9632;51.018;4.284;2023-09-19T07:52:08;12.57;;;2.22;;
18997;SDS011;9632;51.018;4.284;2023-09-19T07:54:34;16.17;;;2.17;;
18997;SDS011;9632;51.018;4.284;2023-09-19T07:57:00;13.02;;;2.08;;
18997;SDS011;9632;51.018;4.284;2023-09-19T07:59:27;16.25;;;2.10;;
18997;SDS011;9632;51.018;4.284;2023-09-19T08:01:53;11.48;;;1.92;;
18997;SDS011;9632;51.018;4.284;2023-09-19T08:04:19;13.32;;;1.80;;
18997;SDS011;9632;51.018;4.284;2023-09-19T08:06:44;14.88;;;2.30;;
18997;SDS011;9632;51.018;4.284;2023-09-19T08:09:10;16.25;;;2.70;;
18997;SDS011;9632;51.018;4.284;2023-09-19T08:11:37;13.88;;;1.90;;
18997;SDS011;9632;51.018;4.284;2023-09-19T08:14:04;16.20;;;2.30;;
18997;SDS011;9632;51.018;4.284;2023-09-19T08:16:32;15.90;;;2.35;;
18997;SDS011;9632;51.018;4.284;2023-09-19T08:18:58;15.50;;;2.58;;
18997;SDS011;9632;51.018;4.284;2023-09-19T08:21:23;12.75;;;1.95;;
18997;SDS011;9632;51.018;4.284;2023-09-19T08:23:50;16.30;;;2.55;;
18997;SDS011;9632;51.018;4.284;2023-09-19T08:26:16;13.55;;;2.30;;
18997;SDS011;9632;51.018;4.284;2023-09-19T08:28:42;24.17;;;2.45;;
18997;SDS011;9632;51.018;4.284;2023-09-19T08:31:07;14.90;;;2.25;;
18997;SDS011;9632;51.018;4.284;2023-09-19T08:33:36;19.00;;;2.40;;
18997;SDS011;9632;51.018;4.284;2023-09-19T08:36:03;16.92;;;2.28;;
18997;SDS011;9632;51.018;4.284;2023-09-19T08:38:30;14.95;;;2.30;;
18997;SDS011;9632;51.018;4.284;2023-09-19T08:41:00;12.10;;;1.92;;
18997;SDS011;9632;51.018;4.284;2023-09-19T08:43:32;14.10;;;2.40;;
18997;SDS011;9632;51.018;4.284;2023-09-19T08:48:30;29.88;;;2.33;;
18997;SDS011;9632;51.018;4.284;2023-09-19T08:51:03;13.50;;;2.05;;
18997;SDS011;9632;51.018;4.284;2023-09-19T08:53:41;14.75;;;2.35;;
18997;SDS011;9632;51.018;4.284;2023-09-19T08:56:14;19.48;;;2.30;;
18997;SDS011;9632;51.018;4.284;2023-09-19T08:58:50;10.77;;;1.98;;
18997;SDS011;9632;51.018;4.284;2023-09-19T09:01:19;13.50;;;2.17;;
18997;SDS011;9632;51.018;4.284;2023-09-19T09:03:51;10.85;;;2.03;;
18997;SDS011;9632;51.018;4.284;2023-09-19T09:06:18;15.93;;;2.20;;
18997;SDS011;9632;51.018;4.284;2023-09-19T09:08:45;14.48;;;2.30;;
18997;SDS011;9632;51.018;4.284;2023-09-19T09:11:12;13.88;;;2.10;;
18997;SDS011;9632;51.018;4.284;2023-09-19T09:13:40;13.52;;;1.80;;
18997;SDS011;9632;51.018;4.284;2023-09-19T09:16:07;14.00;;;2.00;;
18997;SDS011;9632;51.018;4.284;2023-09-19T09:18:34;10.38;;;1.65;;
18997;SDS011;9632;51.018;4.284;2023-09-19T09:21:01;9.15;;;1.70;;
18997;SDS011;9632;51.018;4.284;2023-09-19T09:23:27;7.45;;;1.38;;
18997;SDS011;9632;51.018;4.284;2023-09-19T09:25:57;11.73;;;1.90;;
18997;SDS011;9632;51.018;4.284;2023-09-19T09:28:32;12.23;;;1.73;;
18997;SDS011;9632;51.018;4.284;2023-09-19T09:31:00;13.25;;;2.03;;
18997;SDS011;9632;51.018;4.284;2023-09-19T09:33:33;16.77;;;1.92;;
18997;SDS011;9632;51.018;4.284;2023-09-19T09:36:00;12.18;;;1.80;;
18997;SDS011;9632;51.018;4.284;2023-09-19T09:38:28;19.55;;;1.92;;
18997;SDS011;9632;51.018;4.284;2023-09-19T09:40:58;10.98;;;2.10;;
18997;SDS011;9632;51.018;4.284;2023-09-19T09:43:35;14.80;;;2.00;;
18997;SDS011;9632;51.018;4.284;2023-09-19T09:48:44;9.65;;;1.63;;
18997;SDS011;9632;51.018;4.284;2023-09-19T09:51:30;12.88;;;2.00;;
18997;SDS011;9632;51.018;4.284;2023-09-19T09:54:09;12.73;;;1.55;;
18997;SDS011;9632;51.018;4.284;2023-09-19T09:56:58;9.77;;;1.75;;
18997;SDS011;9632;51.018;4.284;2023-09-19T10:02:15;13.02;;;1.55;;
18997;SDS011;9632;51.018;4.284;2023-09-19T10:04:49;10.13;;;1.30;;
18997;SDS011;9632;51.018;4.284;2023-09-19T10:07:45;8.05;;;1.33;;
18997;SDS011;9632;51.018;4.284;2023-09-19T10:13:06;6.72;;;1.52;;
18997;SDS011;9632;51.018;4.284;2023-09-19T10:15:33;8.32;;;1.52;;
18997;SDS011;9632;51.018;4.284;2023-09-19T10:18:01;11.20;;;1.20;;
18997;SDS011;9632;51.018;4.284;2023-09-19T10:20:30;7.72;;;1.13;;
18997;SDS011;9632;51.018;4.284;2023-09-19T10:23:00;7.45;;;1.30;;
18997;SDS011;9632;51.018;4.284;2023-09-19T10:25:34;11.20;;;1.50;;
18997;SDS011;9632;51.018;4.284;2023-09-19T10:28:02;9.32;;;1.55;;
18997;SDS011;9632;51.018;4.284;2023-09-19T10:30:31;12.43;;;1.98;;
18997;SDS011;9632;51.018;4.284;2023-09-19T10:33:02;11.50;;;1.50;;
18997;SDS011;9632;51.018;4.284;2023-09-19T10:35:29;7.82;;;1.60;;
18997;SDS011;9632;51.018;4.284;2023-09-19T10:37:57;9.82;;;1.63;;
18997;SDS011;9632;51.018;4.284;2023-09-19T10:40:26;8.88;;;1.95;;
18997;SDS011;9632;51.018;4.284;2023-09-19T10:43:05;13.43;;;1.98;;
18997;SDS011;9632;51.018;4.284;2023-09-19T10:45:31;9.13;;;1.83;;
18997;SDS011;9632;51.018;4.284;2023-09-19T10:48:00;8.13;;;1.40;;
18997;SDS011;9632;51.018;4.284;2023-09-19T10:50:30;9.32;;;1.83;;
18997;SDS011;9632;51.018;4.284;2023-09-19T10:53:02;9.40;;;1.30;;
18997;SDS011;9632;51.018;4.284;2023-09-19T10:55:32;10.95;;;1.33;;
18997;SDS011;9632;51.018;4.284;2023-09-19T10:58:00;6.75;;;1.15;;
18997;SDS011;9632;51.018;4.284;2023-09-19T11:00:28;6.60;;;1.38;;
18997;SDS011;9632;51.018;4.284;2023-09-19T11:05:40;4.78;;;0.80;;
18997;SDS011;9632;51.018;4.284;2023-09-19T11:08:10;7.00;;;1.20;;
18997;SDS011;9632;51.018;4.284;2023-09-19T11:10:46;9.43;;;0.95;;
18997;SDS011;9632;51.018;4.284;2023-09-19T11:26:47;4.70;;;1.02;;
18997;SDS011;9632;51.018;4.284;2023-09-19T11:29:32;4.18;;;0.88;;
18997;SDS011;9632;51.018;4.284;2023-09-19T11:31:58;4.93;;;0.80;;
18997;SDS011;9632;51.018;4.284;2023-09-19T11:39:37;7.88;;;1.08;;
18997;SDS011;9632;51.018;4.284;2023-09-19T11:45:07;5.05;;;0.98;;
18997;SDS011;9632;51.018;4.284;2023-09-19T11:47:54;4.30;;;0.82;;
18997;SDS011;9632;51.018;4.284;2023-09-19T11:50:21;8.55;;;1.05;;
18997;SDS011;9632;51.018;4.284;2023-09-19T11:52:49;6.75;;;0.90;;
18997;SDS011;9632;51.018;4.284;2023-09-19T11:55:17;6.88;;;0.98;;
18997;SDS011;9632;51.018;4.284;2023-09-19T11:57:46;4.88;;;0.85;;
18997;SDS011;9632;51.018;4.284;2023-09-19T12:00:20;5.50;;;0.82;;
18997;SDS011;9632;51.018;4.284;2023-09-19T12:02:46;7.40;;;0.80;;
18997;SDS011;9632;51.018;4.284;2023-09-19T12:05:15;6.45;;;1.02;;
18997;SDS011;9632;51.018;4.284;2023-09-19T12:07:42;8.13;;;0.80;;
18997;SDS011;9632;51.018;4.284;2023-09-19T12:10:12;5.13;;;0.80;;
18997;SDS011;9632;51.018;4.284;2023-09-19T12:12:46;5.38;;;0.88;;
18997;SDS011;9632;51.018;4.284;2023-09-19T12:15:13;4.15;;;0.70;;
18997;SDS011;9632;51.018;4.284;2023-09-19T12:17:40;6.10;;;0.80;;
18997;SDS011;9632;51.018;4.284;2023-09-19T12:20:10;4.70;;;0.80;;
18997;SDS011;9632;51.018;4.284;2023-09-19T12:22:41;6.80;;;0.90;;
18997;SDS011;9632;51.018;4.284;2023-09-19T12:25:08;3.58;;;0.70;;
18997;SDS011;9632;51.018;4.284;2023-09-19T12:27:48;6.60;;;0.70;;
18997;SDS011;9632;51.018;4.284;2023-09-19T12:30:22;4.10;;;0.75;;
18997;SDS011;9632;51.018;4.284;2023-09-19T12:32:53;7.32;;;0.93;;
18997;SDS011;9632;51.018;4.284;2023-09-19T12:35:26;5.45;;;0.85;;
18997;SDS011;9632;51.018;4.284;2023-09-19T12:38:02;4.68;;;0.70;;
18997;SDS011;9632;51.018;4.284;2023-09-19T12:40:28;5.05;;;0.70;;
18997;SDS011;9632;51.018;4.284;2023-09-19T12:42:57;6.68;;;0.90;;
18997;SDS011;9632;51.018;4.284;2023-09-19T12:45:24;6.00;;;0.70;;
18997;SDS011;9632;51.018;4.284;2023-09-19T12:51:06;7.35;;;0.70;;
18997;SDS011;9632;51.018;4.284;2023-09-19T12:53:38;10.23;;;1.10;;
18997;SDS011;9632;51.018;4.284;2023-09-19T12:56:09;3.88;;;0.85;;
18997;SDS011;9632;51.018;4.284;2023-09-19T13:01:21;7.97;;;1.08;;
18997;SDS011;9632;51.018;4.284;2023-09-19T13:06:37;5.50;;;1.13;;
18997;SDS011;9632;51.018;4.284;2023-09-19T13:09:09;6.95;;;1.13;;
18997;SDS011;9632;51.018;4.284;2023-09-19T13:11:36;9.73;;;1.20;;
18997;SDS011;9632;51.018;4.284;2023-09-19T13:16:59;7.20;;;1.20;;
18997;SDS011;9632;51.018;4.284;2023-09-19T13:19:51;5.80;;;1.13;;
18997;SDS011;9632;51.018;4.284;2023-09-19T13:22:41;4.63;;;0.70;;
18997;SDS011;9632;51.018;4.284;2023-09-19T13:25:13;7.55;;;1.25;;
18997;SDS011;9632;51.018;4.284;2023-09-19T13:27:43;7.63;;;1.20;;
18997;SDS011;9632;51.018;4.284;2023-09-19T13:30:10;5.57;;;1.20;;
18997;SDS011;9632;51.018;4.284;2023-09-19T13:32:39;8.13;;;1.02;;
18997;SDS011;9632;51.018;4.284;2023-09-19T13:35:06;7.28;;;1.20;;
18997;SDS011;9632;51.018;4.284;2023-09-19T13:37:35;6.72;;;0.90;;
18997;SDS011;9632;51.018;4.284;2023-09-19T13:40:07;5.63;;;0.90;;
18997;SDS011;9632;51.018;4.284;2023-09-19T13:42:36;5.72;;;0.90;;
18997;SDS011;9632;51.018;4.284;2023-09-19T13:45:03;12.15;;;1.35;;
18997;SDS011;9632;51.018;4.284;2023-09-19T13:47:29;7.85;;;1.38;;
18997;SDS011;9632;51.018;4.284;2023-09-19T13:49:56;4.40;;;0.82;;
18997;SDS011;9632;51.018;4.284;2023-09-19T13:52:22;5.72;;;1.08;;
18997;SDS011;9632;51.018;4.284;2023-09-19T13:54:49;9.07;;;1.02;;
18997;SDS011;9632;51.018;4.284;2023-09-19T13:57:15;6.20;;;1.20;;
18997;SDS011;9632;51.018;4.284;2023-09-19T13:59:41;5.70;;;1.02;;
18997;SDS011;9632;51.018;4.284;2023-09-19T14:02:07;5.45;;;0.73;;
18997;SDS011;9632;51.018;4.284;2023-09-19T14:04:33;7.30;;;1.33;;
18997;SDS011;9632;51.018;4.284;2023-09-19T14:07:01;5.53;;;1.00;;
18997;SDS011;9632;51.018;4.284;2023-09-19T14:09:28;5.90;;;0.80;;
18997;SDS011;9632;51.018;4.284;2023-09-19T14:11:54;4.68;;;1.15;;
18997;SDS011;9632;51.018;4.284;2023-09-19T14:14:19;6.38;;;1.20;;
18997;SDS011;9632;51.018;4.284;2023-09-19T14:16:46;6.80;;;1.10;;
18997;SDS011;9632;51.018;4.284;2023-09-19T14:19:12;9.25;;;1.45;;
18997;SDS011;9632;51.018;4.284;2023-09-19T14:21:40;6.25;;;1.23;;
18997;SDS011;9632;51.018;4.284;2023-09-19T14:24:05;5.28;;;1.00;;
18997;SDS011;9632;51.018;4.284;2023-09-19T14:26:37;10.10;;;1.30;;
18997;SDS011;9632;51.018;4.284;2023-09-19T14:29:03;7.55;;;1.50;;
18997;SDS011;9632;51.018;4.284;2023-09-19T14:31:29;5.80;;;1.20;;
18997;SDS011;9632;51.018;4.284;2023-09-19T14:33:55;8.73;;;1.20;;
18997;SDS011;9632;51.018;4.284;2023-09-19T14:36:24;8.88;;;1.48;;
18997;SDS011;9632;51.018;4.284;2023-09-19T14:38:53;7.65;;;1.30;;
18997;SDS011;9632;51.018;4.284;2023-09-19T14:41:20;8.18;;;1.23;;
18997;SDS011;9632;51.018;4.284;2023-09-19T14:43:46;11.77;;;1.60;;
18997;SDS011;9632;51.018;4.284;2023-09-19T14:46:12;8.00;;;1.35;;
18997;SDS011;9632;51.018;4.284;2023-09-19T14:48:39;6.38;;;1.38;;
18997;SDS011;9632;51.018;4.284;2023-09-19T14:51:05;7.07;;;1.10;;
18997;SDS011;9632;51.018;4.284;2023-09-19T14:53:33;9.60;;;1.30;;
18997;SDS011;9632;51.018;4.284;2023-09-19T14:56:00;5.07;;;0.90;;
18997;SDS011;9632;51.018;4.284;2023-09-19T14:58:29;9.40;;;1.35;;
18997;SDS011;9632;51.018;4.284;2023-09-19T15:01:06;7.63;;;1.30;;
18997;SDS011;9632;51.018;4.284;2023-09-19T15:03:35;6.45;;;1.38;;
18997;SDS011;9632;51.018;4.284;2023-09-19T15:06:02;8.63;;;1.60;;
18997;SDS011;9632;51.018;4.284;2023-09-19T15:08:32;10.80;;;1.80;;
18997;SDS011;9632;51.018;4.284;2023-09-19T15:11:03;6.88;;;1.42;;
18997;SDS011;9632;51.018;4.284;2023-09-19T15:13:32;10.15;;;1.42;;
18997;SDS011;9632;51.018;4.284;2023-09-19T15:15:59;6.88;;;1.25;;
18997;SDS011;9632;51.018;4.284;2023-09-19T15:18:27;9.15;;;1.65;;
18997;SDS011;9632;51.018;4.284;2023-09-19T15:20:54;6.97;;;1.63;;
18997;SDS011;9632;51.018;4.284;2023-09-19T15:23:20;8.77;;;1.48;;
18997;SDS011;9632;51.018;4.284;2023-09-19T15:25:49;8.32;;;1.42;;
18997;SDS011;9632;51.018;4.284;2023-09-19T15:28:16;6.28;;;1.50;;
18997;SDS011;9632;51.018;4.284;2023-09-19T15:30:41;6.70;;;1.67;;
18997;SDS011;9632;51.018;4.284;2023-09-19T15:33:07;6.70;;;1.50;;
18997;SDS011;9632;51.018;4.284;2023-09-19T15:35:36;8.90;;;1.33;;
18997;SDS011;9632;51.018;4.284;2023-09-19T15:38:02;8.43;;;1.38;;
18997;SDS011;9632;51.018;4.284;2023-09-19T15:40:29;8.75;;;1.40;;
18997;SDS011;9632;51.018;4.284;2023-09-19T15:42:54;7.57;;;1.30;;
18997;SDS011;9632;51.018;4.284;2023-09-19T15:45:21;4.32;;;1.15;;
18997;SDS011;9632;51.018;4.284;2023-09-19T15:47:48;10.85;;;1.73;;
18997;SDS011;9632;51.018;4.284;2023-09-19T15:50:13;7.53;;;1.70;;
18997;SDS011;9632;51.018;4.284;2023-09-19T15:52:40;7.55;;;1.35;;
18997;SDS011;9632;51.018;4.284;2023-09-19T15:55:08;7.50;;;1.55;;
18997;SDS011;9632;51.018;4.284;2023-09-19T15:57:38;10.23;;;1.50;;